sensor_id;sensor_type;location;lat;lon;timestamp;pressure;altitude;pressure_sealevel;temperature;humidity
54465;BME280;40374;49.480;20.016;2023-04-27T00:00:35;94994.84;;;0.80;100.00
54465;BME280;40374;49.480;20.016;2023-04-27T00:03:15;94994.28;;;0.71;100.00
54465;BME280;40374;49.480;20.016;2023-04-27T00:05:43;94987.81;;;0.67;100.00
54465;BME280;40374;49.480;20.016;2023-04-27T00:08:10;95001.03;;;0.67;100.00
54465;BME280;40374;49.480;20.016;2023-04-27T00:10:38;94992.28;;;0.67;100.00
54465;BME280;40374;49.480;20.016;2023-04-27T00:13:05;94995.59;;;0.62;100.00
54465;BME280;40374;49.480;20.016;2023-04-27T00:15:33;94984.47;;;0.53;100.00
54465;BME280;40374;49.480;20.016;2023-04-27T00:18:00;94993.13;;;0.42;100.00
54465;BME280;40374;49.480;20.016;2023-04-27T00:20:28;94988.63;;;0.43;100.00
54465;BME280;40374;49.480;20.016;2023-04-27T00:22:55;94993.47;;;0.46;100.00
54465;BME280;40374;49.480;20.016;2023-04-27T00:25:23;94994.53;;;0.45;100.00
54465;BME280;40374;49.480;20.016;2023-04-27T00:27:52;94993.88;;;0.49;100.00
54465;BME280;40374;49.480;20.016;2023-04-27T00:30:20;94995.00;;;0.35;100.00
54465;BME280;40374;49.480;20.016;2023-04-27T00:32:47;94995.31;;;0.20;100.00
54465;BME280;40374;49.480;20.016;2023-04-27T00:35:15;94999.41;;;0.16;100.00
54465;BME280;40374;49.480;20.016;2023-04-27T00:37:43;94989.66;;;0.10;100.00
54465;BME280;40374;49.480;20.016;2023-04-27T00:40:11;94977.84;;;0.12;100.00
54465;BME280;40374;49.480;20.016;2023-04-27T00:42:38;94991.97;;;0.31;100.00
54465;BME280;40374;49.480;20.016;2023-04-27T00:45:06;94997.69;;;0.28;100.00
54465;BME280;40374;49.480;20.016;2023-04-27T00:47:33;94998.50;;;0.29;100.00
54465;BME280;40374;49.480;20.016;2023-04-27T00:50:02;94999.53;;;0.28;100.00
54465;BME280;40374;49.480;20.016;2023-04-27T00:52:30;95001.78;;;0.24;100.00
54465;BME280;40374;49.480;20.016;2023-04-27T00:54:57;95001.34;;;0.27;100.00
54465;BME280;40374;49.480;20.016;2023-04-27T00:57:25;95004.00;;;0.27;100.00
54465;BME280;40374;49.480;20.016;2023-04-27T00:59:52;95001.41;;;0.20;100.00
54465;BME280;40374;49.480;20.016;2023-04-27T01:02:22;95002.47;;;0.13;100.00
54465;BME280;40374;49.480;20.016;2023-04-27T01:04:50;95000.09;;;0.05;100.00
54465;BME280;40374;49.480;20.016;2023-04-27T01:07:18;95012.72;;;0.03;100.00
54465;BME280;40374;49.480;20.016;2023-04-27T01:09:45;94999.19;;;-0.14;100.00
54465;BME280;40374;49.480;20.016;2023-04-27T01:12:14;95011.84;;;-0.23;100.00
54465;BME280;40374;49.480;20.016;2023-04-27T01:14:42;95015.94;;;-0.27;100.00
54465;BME280;40374;49.480;20.016;2023-04-27T01:17:09;95015.56;;;-0.37;100.00
54465;BME280;40374;49.480;20.016;2023-04-27T01:19:38;95007.28;;;-0.48;100.00
54465;BME280;40374;49.480;20.016;2023-04-27T01:22:06;95017.59;;;-0.39;100.00
54465;BME280;40374;49.480;20.016;2023-04-27T01:24:34;95018.19;;;-0.37;100.00
54465;BME280;40374;49.480;20.016;2023-04-27T01:27:04;95015.72;;;-0.32;100.00
54465;BME280;40374;49.480;20.016;2023-04-27T01:29:31;95017.16;;;-0.36;100.00
54465;BME280;40374;49.480;20.016;2023-04-27T01:31:58;95021.09;;;-0.46;100.00
54465;BME280;40374;49.480;20.016;2023-04-27T01:34:26;95018.44;;;-0.46;100.00
54465;BME280;40374;49.480;20.016;2023-04-27T01:36:53;95015.38;;;-0.43;100.00
54465;BME280;40374;49.480;20.016;2023-04-27T01:39:21;95020.84;;;-0.37;100.00
54465;BME280;40374;49.480;20.016;2023-04-27T01:41:48;95025.28;;;-0.31;100.00
54465;BME280;40374;49.480;20.016;2023-04-27T01:44:16;95010.66;;;-0.34;100.00
54465;BME280;40374;49.480;20.016;2023-04-27T01:46:43;95028.88;;;-0.19;100.00
54465;BME280;40374;49.480;20.016;2023-04-27T01:49:12;95023.56;;;-0.12;100.00
54465;BME280;40374;49.480;20.016;2023-04-27T01:51:39;95029.44;;;-0.04;100.00
54465;BME280;40374;49.480;20.016;2023-04-27T01:54:07;95026.34;;;-0.01;100.00
54465;BME280;40374;49.480;20.016;2023-04-27T01:56:35;95026.56;;;-0.02;100.00
54465;BME280;40374;49.480;20.016;2023-04-27T01:59:02;95011.16;;;-0.12;100.00
54465;BME280;40374;49.480;20.016;2023-04-27T02:01:30;95018.28;;;-0.12;100.00
54465;BME280;40374;49.480;20.016;2023-04-27T02:03:57;95017.53;;;-0.26;100.00
54465;BME280;40374;49.480;20.016;2023-04-27T02:06:25;95022.06;;;0.05;100.00
54465;BME280;40374;49.480;20.016;2023-04-27T02:08:53;95024.28;;;0.02;100.00
54465;BME280;40374;49.480;20.016;2023-04-27T02:11:21;95033.63;;;0.04;100.00
54465;BME280;40374;49.480;20.016;2023-04-27T02:13:49;95023.53;;;-0.06;100.00
54465;BME280;40374;49.480;20.016;2023-04-27T02:16:17;95025.75;;;-0.03;100.00
54465;BME280;40374;49.480;20.016;2023-04-27T02:18:44;95029.81;;;0.00;100.00
54465;BME280;40374;49.480;20.016;2023-04-27T02:21:12;95025.75;;;-0.03;100.00
54465;BME280;40374;49.480;20.016;2023-04-27T02:23:39;95016.66;;;-0.13;100.00
54465;BME280;40374;49.480;20.016;2023-04-27T02:26:07;95021.13;;;-0.14;100.00
54465;BME280;40374;49.480;20.016;2023-04-27T02:28:36;95038.59;;;-0.06;100.00
54465;BME280;40374;49.480;20.016;2023-04-27T02:31:04;95017.84;;;-0.09;100.00
54465;BME280;40374;49.480;20.016;2023-04-27T02:33:32;95038.56;;;0.01;100.00
54465;BME280;40374;49.480;20.016;2023-04-27T02:35:59;95034.88;;;0.02;100.00
54465;BME280;40374;49.480;20.016;2023-04-27T02:38:32;95039.50;;;0.13;100.00
54465;BME280;40374;49.480;20.016;2023-04-27T02:40:59;95040.94;;;0.09;100.00
54465;BME280;40374;49.480;20.016;2023-04-27T02:43:27;95043.97;;;0.12;100.00
54465;BME280;40374;49.480;20.016;2023-04-27T02:45:54;95035.88;;;0.07;100.00
54465;BME280;40374;49.480;20.016;2023-04-27T02:48:22;95038.00;;;-0.08;100.00
54465;BME280;40374;49.480;20.016;2023-04-27T02:50:49;95040.31;;;-0.25;100.00
54465;BME280;40374;49.480;20.016;2023-04-27T02:53:16;95026.81;;;-0.17;100.00
54465;BME280;40374;49.480;20.016;2023-04-27T02:55:45;95036.75;;;-0.06;100.00
54465;BME280;40374;49.480;20.016;2023-04-27T02:58:15;95039.00;;;-0.09;100.00
54465;BME280;40374;49.480;20.016;2023-04-27T03:00:43;95026.22;;;-0.19;100.00
54465;BME280;40374;49.480;20.016;2023-04-27T03:03:11;95037.13;;;0.05;100.00
54465;BME280;40374;49.480;20.016;2023-04-27T03:05:39;95029.22;;;-0.02;100.00
54465;BME280;40374;49.480;20.016;2023-04-27T03:08:07;95042.75;;;0.08;100.00
54465;BME280;40374;49.480;20.016;2023-04-27T03:10:34;95038.50;;;0.07;100.00
54465;BME280;40374;49.480;20.016;2023-04-27T03:13:02;95038.13;;;0.04;100.00
54465;BME280;40374;49.480;20.016;2023-04-27T03:15:29;95041.81;;;0.03;100.00
54465;BME280;40374;49.480;20.016;2023-04-27T03:17:57;95041.75;;;0.09;100.00
54465;BME280;40374;49.480;20.016;2023-04-27T03:20:24;95029.13;;;0.11;100.00
54465;BME280;40374;49.480;20.016;2023-04-27T03:22:53;95052.25;;;0.23;100.00
54465;BME280;40374;49.480;20.016;2023-04-27T03:25:20;95044.09;;;0.24;100.00
54465;BME280;40374;49.480;20.016;2023-04-27T03:27:47;95033.53;;;0.24;100.00
54465;BME280;40374;49.480;20.016;2023-04-27T03:30:17;95045.22;;;0.42;100.00
54465;BME280;40374;49.480;20.016;2023-04-27T03:32:45;95039.91;;;0.42;100.00
54465;BME280;40374;49.480;20.016;2023-04-27T03:35:13;95030.19;;;0.35;100.00
54465;BME280;40374;49.480;20.016;2023-04-27T03:37:41;95053.44;;;0.27;100.00
54465;BME280;40374;49.480;20.016;2023-04-27T03:40:11;95044.66;;;0.33;100.00
54465;BME280;40374;49.480;20.016;2023-04-27T03:42:39;95046.25;;;0.40;100.00
54465;BME280;40374;49.480;20.016;2023-04-27T03:45:07;95051.47;;;0.47;100.00
54465;BME280;40374;49.480;20.016;2023-04-27T03:47:35;95056.78;;;0.47;100.00
54465;BME280;40374;49.480;20.016;2023-04-27T03:50:02;95052.50;;;0.46;100.00
54465;BME280;40374;49.480;20.016;2023-04-27T03:52:31;95058.38;;;0.55;100.00
54465;BME280;40374;49.480;20.016;2023-04-27T03:54:59;95067.44;;;0.66;100.00
54465;BME280;40374;49.480;20.016;2023-04-27T03:57:26;95066.78;;;0.70;100.00
54465;BME280;40374;49.480;20.016;2023-04-27T03:59:54;95073.28;;;0.74;100.00
54465;BME280;40374;49.480;20.016;2023-04-27T04:02:21;95061.88;;;0.74;100.00
54465;BME280;40374;49.480;20.016;2023-04-27T04:04:50;95059.25;;;0.74;100.00
54465;BME280;40374;49.480;20.016;2023-04-27T04:07:18;95073.16;;;0.88;100.00
54465;BME280;40374;49.480;20.016;2023-04-27T04:09:45;95068.91;;;0.87;100.00
54465;BME280;40374;49.480;20.016;2023-04-27T04:12:12;95065.50;;;0.79;100.00
54465;BME280;40374;49.480;20.016;2023-04-27T04:14:40;95068.97;;;0.80;100.00
54465;BME280;40374;49.480;20.016;2023-04-27T04:17:08;95081.66;;;0.96;100.00
54465;BME280;40374;49.480;20.016;2023-04-27T04:19:39;95080.84;;;0.96;100.00
54465;BME280;40374;49.480;20.016;2023-04-27T04:22:07;95076.31;;;1.03;100.00
54465;BME280;40374;49.480;20.016;2023-04-27T04:24:34;95088.69;;;1.09;100.00
54465;BME280;40374;49.480;20.016;2023-04-27T04:27:02;95088.25;;;1.12;100.00
54465;BME280;40374;49.480;20.016;2023-04-27T04:29:30;95089.44;;;1.16;100.00
54465;BME280;40374;49.480;20.016;2023-04-27T04:31:59;95085.91;;;1.23;100.00
54465;BME280;40374;49.480;20.016;2023-04-27T04:34:26;95097.63;;;1.33;100.00
54465;BME280;40374;49.480;20.016;2023-04-27T04:36:55;95103.63;;;1.47;100.00
54465;BME280;40374;49.480;20.016;2023-04-27T04:39:29;95097.50;;;1.65;100.00
54465;BME280;40374;49.480;20.016;2023-04-27T04:41:57;95087.78;;;1.59;100.00
54465;BME280;40374;49.480;20.016;2023-04-27T04:44:27;95100.53;;;1.69;100.00
54465;BME280;40374;49.480;20.016;2023-04-27T04:46:55;95101.22;;;1.64;100.00
54465;BME280;40374;49.480;20.016;2023-04-27T04:49:25;95099.72;;;1.50;100.00
54465;BME280;40374;49.480;20.016;2023-04-27T04:51:52;95109.72;;;1.48;100.00
54465;BME280;40374;49.480;20.016;2023-04-27T04:54:20;95109.78;;;1.59;100.00
54465;BME280;40374;49.480;20.016;2023-04-27T04:56:47;95114.50;;;1.57;100.00
54465;BME280;40374;49.480;20.016;2023-04-27T04:59:14;95115.84;;;1.67;100.00
54465;BME280;40374;49.480;20.016;2023-04-27T05:01:42;95119.03;;;1.75;100.00
54465;BME280;40374;49.480;20.016;2023-04-27T05:04:10;95119.03;;;1.75;100.00
54465;BME280;40374;49.480;20.016;2023-04-27T05:06:38;95114.69;;;1.81;100.00
54465;BME280;40374;49.480;20.016;2023-04-27T05:09:05;95109.38;;;1.81;100.00
54465;BME280;40374;49.480;20.016;2023-04-27T05:11:33;95109.13;;;2.01;100.00
54465;BME280;40374;49.480;20.016;2023-04-27T05:14:00;95103.91;;;2.13;100.00
54465;BME280;40374;49.480;20.016;2023-04-27T05:16:28;95105.44;;;2.20;100.00
54465;BME280;40374;49.480;20.016;2023-04-27T05:18:55;95107.78;;;2.29;100.00
54465;BME280;40374;49.480;20.016;2023-04-27T05:21:23;95110.94;;;2.37;100.00
54465;BME280;40374;49.480;20.016;2023-04-27T05:23:50;95110.41;;;2.47;100.00
54465;BME280;40374;49.480;20.016;2023-04-27T05:26:18;95117.94;;;2.62;100.00
54465;BME280;40374;49.480;20.016;2023-04-27T05:28:45;95109.66;;;2.70;100.00
54465;BME280;40374;49.480;20.016;2023-04-27T05:31:13;95117.09;;;2.92;100.00
54465;BME280;40374;49.480;20.016;2023-04-27T05:33:40;95115.88;;;3.06;100.00
54465;BME280;40374;49.480;20.016;2023-04-27T05:36:08;95122.16;;;3.23;100.00
54465;BME280;40374;49.480;20.016;2023-04-27T05:38:35;95126.28;;;3.31;100.00
54465;BME280;40374;49.480;20.016;2023-04-27T05:41:06;95120.88;;;3.50;100.00
54465;BME280;40374;49.480;20.016;2023-04-27T05:43:34;95124.78;;;3.59;100.00
54465;BME280;40374;49.480;20.016;2023-04-27T05:46:03;95132.66;;;3.77;100.00
54465;BME280;40374;49.480;20.016;2023-04-27T05:48:31;95131.03;;;3.88;100.00
54465;BME280;40374;49.480;20.016;2023-04-27T05:51:02;95119.13;;;3.91;100.00
54465;BME280;40374;49.480;20.016;2023-04-27T05:53:33;95135.63;;;4.04;100.00
54465;BME280;40374;49.480;20.016;2023-04-27T05:56:01;95131.13;;;4.05;100.00
54465;BME280;40374;49.480;20.016;2023-04-27T05:58:30;95126.00;;;4.15;100.00
54465;BME280;40374;49.480;20.016;2023-04-27T06:01:01;95137.66;;;4.26;100.00
54465;BME280;40374;49.480;20.016;2023-04-27T06:03:29;95140.53;;;4.36;100.00
54465;BME280;40374;49.480;20.016;2023-04-27T06:05:59;95131.47;;;4.49;100.00
54465;BME280;40374;49.480;20.016;2023-04-27T06:08:27;95138.34;;;4.62;100.00
54465;BME280;40374;49.480;20.016;2023-04-27T06:10:55;95137.94;;;4.82;100.00
54465;BME280;40374;49.480;20.016;2023-04-27T06:13:22;95146.72;;;4.82;100.00
54465;BME280;40374;49.480;20.016;2023-04-27T06:15:50;95141.44;;;4.99;100.00
54465;BME280;40374;49.480;20.016;2023-04-27T06:18:17;95129.81;;;5.22;100.00
54465;BME280;40374;49.480;20.016;2023-04-27T06:20:45;95142.69;;;5.42;100.00
54465;BME280;40374;49.480;20.016;2023-04-27T06:23:12;95145.81;;;5.73;100.00
54465;BME280;40374;49.480;20.016;2023-04-27T06:25:40;95140.47;;;5.90;100.00
54465;BME280;40374;49.480;20.016;2023-04-27T06:28:08;95132.06;;;5.98;100.00
54465;BME280;40374;49.480;20.016;2023-04-27T06:30:36;95133.78;;;6.26;100.00
54465;BME280;40374;49.480;20.016;2023-04-27T06:33:05;95131.63;;;6.73;100.00
54465;BME280;40374;49.480;20.016;2023-04-27T06:35:33;95136.06;;;7.16;100.00
54465;BME280;40374;49.480;20.016;2023-04-27T06:38:00;95135.59;;;7.57;100.00
54465;BME280;40374;49.480;20.016;2023-04-27T06:40:28;95128.59;;;7.93;100.00
54465;BME280;40374;49.480;20.016;2023-04-27T06:42:57;95131.47;;;8.24;100.00
54465;BME280;40374;49.480;20.016;2023-04-27T10:24:36;95127.97;;;10.14;56.14
54465;BME280;40374;49.480;20.016;2023-04-27T10:27:09;95133.44;;;10.80;51.32
54465;BME280;40374;49.480;20.016;2023-04-27T10:29:39;95130.59;;;11.45;50.85
54465;BME280;40374;49.480;20.016;2023-04-27T10:32:12;95120.34;;;12.10;50.21
54465;BME280;40374;49.480;20.016;2023-04-27T10:34:42;95118.13;;;12.42;48.65
54465;BME280;40374;49.480;20.016;2023-04-27T10:37:11;95104.81;;;12.26;47.41
54465;BME280;40374;49.480;20.016;2023-04-27T10:39:41;95109.47;;;12.45;45.75
54465;BME280;40374;49.480;20.016;2023-04-27T10:42:25;95113.06;;;12.83;46.21
54465;BME280;40374;49.480;20.016;2023-04-27T10:44:57;95101.38;;;12.88;44.67
54465;BME280;40374;49.480;20.016;2023-04-27T10:47:40;95113.47;;;11.99;45.41
54465;BME280;40374;49.480;20.016;2023-04-27T10:50:11;95122.91;;;10.83;46.95
54465;BME280;40374;49.480;20.016;2023-04-27T10:52:41;95118.38;;;9.83;48.53
54465;BME280;40374;49.480;20.016;2023-04-27T10:55:17;95137.72;;;9.59;53.45
54465;BME280;40374;49.480;20.016;2023-04-27T10:57:49;95140.34;;;9.08;54.42
54465;BME280;40374;49.480;20.016;2023-04-27T11:00:24;95147.78;;;8.70;56.62
54465;BME280;40374;49.480;20.016;2023-04-27T11:02:54;95137.13;;;8.38;58.79
54465;BME280;40374;49.480;20.016;2023-04-27T11:05:26;95145.91;;;8.18;61.35
54465;BME280;40374;49.480;20.016;2023-04-27T11:08:15;95146.38;;;8.04;60.95
54465;BME280;40374;49.480;20.016;2023-04-27T11:10:45;95140.81;;;7.73;60.00
54465;BME280;40374;49.480;20.016;2023-04-27T11:13:15;95151.78;;;7.40;58.70
54465;BME280;40374;49.480;20.016;2023-04-27T11:18:19;95140.59;;;6.88;61.13
54465;BME280;40374;49.480;20.016;2023-04-27T11:20:49;95152.97;;;7.22;63.58
54465;BME280;40374;49.480;20.016;2023-04-27T11:23:30;95151.44;;;7.63;64.32
54465;BME280;40374;49.480;20.016;2023-04-27T11:26:10;95151.47;;;7.68;59.28
54465;BME280;40374;49.480;20.016;2023-04-27T11:28:38;95155.25;;;7.72;58.97
54465;BME280;40374;49.480;20.016;2023-04-27T11:31:06;95150.72;;;7.73;57.53
54465;BME280;40374;49.480;20.016;2023-04-27T11:33:34;95146.06;;;8.01;56.87
54465;BME280;40374;49.480;20.016;2023-04-27T11:36:01;95146.59;;;8.45;56.82
54465;BME280;40374;49.480;20.016;2023-04-27T11:38:32;95152.25;;;8.54;53.02
54465;BME280;40374;49.480;20.016;2023-04-27T11:41:06;95142.50;;;9.11;52.08
54465;BME280;40374;49.480;20.016;2023-04-27T11:43:36;95133.53;;;10.49;49.29
54465;BME280;40374;49.480;20.016;2023-04-27T11:46:07;95125.38;;;11.88;49.24
54465;BME280;40374;49.480;20.016;2023-04-27T11:48:38;95131.88;;;12.88;45.15
54465;BME280;40374;49.480;20.016;2023-04-27T11:51:10;95131.91;;;12.64;45.31
54465;BME280;40374;49.480;20.016;2023-04-27T11:53:39;95129.28;;;12.78;45.56
54465;BME280;40374;49.480;20.016;2023-04-27T11:56:08;95125.38;;;12.22;44.97
54465;BME280;40374;49.480;20.016;2023-04-27T11:58:38;95133.38;;;11.29;47.98
54465;BME280;40374;49.480;20.016;2023-04-27T12:01:08;95134.59;;;10.53;46.36
54465;BME280;40374;49.480;20.016;2023-04-27T12:03:36;95130.44;;;9.85;46.70
54465;BME280;40374;49.480;20.016;2023-04-27T12:06:04;95134.50;;;9.62;47.56
54465;BME280;40374;49.480;20.016;2023-04-27T12:08:54;95141.19;;;9.54;52.26
54465;BME280;40374;49.480;20.016;2023-04-27T12:11:26;95128.06;;;9.58;51.58
54465;BME280;40374;49.480;20.016;2023-04-27T12:13:57;95137.69;;;9.49;50.89
54465;BME280;40374;49.480;20.016;2023-04-27T12:16:25;95132.06;;;9.30;52.37
54465;BME280;40374;49.480;20.016;2023-04-27T12:18:52;95141.47;;;9.38;53.77
54465;BME280;40374;49.480;20.016;2023-04-27T12:21:20;95130.19;;;9.41;51.40
54465;BME280;40374;49.480;20.016;2023-04-27T12:23:48;95139.56;;;9.23;51.92
54465;BME280;40374;49.480;20.016;2023-04-27T12:26:16;95144.88;;;8.92;51.38
54465;BME280;40374;49.480;20.016;2023-04-27T12:28:43;95137.63;;;8.87;52.42
54465;BME280;40374;49.480;20.016;2023-04-27T12:31:14;95145.69;;;9.03;52.29
54465;BME280;40374;49.480;20.016;2023-04-27T12:33:53;95125.91;;;9.34;52.93
54465;BME280;40374;49.480;20.016;2023-04-27T12:36:21;95134.19;;;9.84;52.75
54465;BME280;40374;49.480;20.016;2023-04-27T12:38:48;95127.97;;;10.14;52.14
54465;BME280;40374;49.480;20.016;2023-04-27T12:41:16;95131.66;;;10.49;51.76
54465;BME280;40374;49.480;20.016;2023-04-27T12:43:43;95123.03;;;10.57;47.11
54465;BME280;40374;49.480;20.016;2023-04-27T12:46:12;95131.78;;;11.28;47.41
54465;BME280;40374;49.480;20.016;2023-04-27T12:48:39;95131.78;;;12.93;44.59
54465;BME280;40374;49.480;20.016;2023-04-27T12:51:07;95122.53;;;13.75;41.20
54465;BME280;40374;49.480;20.016;2023-04-27T12:53:35;95117.38;;;13.41;41.41
54465;BME280;40374;49.480;20.016;2023-04-27T12:56:03;95111.09;;;13.46;39.83
54465;BME280;40374;49.480;20.016;2023-04-27T12:58:30;95117.97;;;13.19;39.70
54465;BME280;40374;49.480;20.016;2023-04-27T13:00:58;95127.84;;;11.89;40.97
54465;BME280;40374;49.480;20.016;2023-04-27T13:03:25;95136.53;;;11.47;46.66
54465;BME280;40374;49.480;20.016;2023-04-27T13:05:54;95128.13;;;11.83;48.33
54465;BME280;40374;49.480;20.016;2023-04-27T13:08:21;95126.09;;;12.28;47.59
54465;BME280;40374;49.480;20.016;2023-04-27T13:10:49;95114.22;;;12.77;47.26
54465;BME280;40374;49.480;20.016;2023-04-27T13:13:17;95116.06;;;13.38;46.83
54465;BME280;40374;49.480;20.016;2023-04-27T13:15:44;95127.28;;;13.97;45.94
54465;BME280;40374;49.480;20.016;2023-04-27T13:18:12;95111.03;;;14.30;45.07
54465;BME280;40374;49.480;20.016;2023-04-27T13:20:40;95116.53;;;14.39;44.95
54465;BME280;40374;49.480;20.016;2023-04-27T13:23:09;95115.31;;;14.17;44.54
54465;BME280;40374;49.480;20.016;2023-04-27T13:25:37;95126.81;;;14.09;45.31
54465;BME280;40374;49.480;20.016;2023-04-27T13:28:04;95112.97;;;13.97;44.61
54465;BME280;40374;49.480;20.016;2023-04-27T13:30:32;95118.47;;;13.59;43.37
54465;BME280;40374;49.480;20.016;2023-04-27T13:33:00;95123.56;;;13.23;41.47
54465;BME280;40374;49.480;20.016;2023-04-27T13:35:47;95121.66;;;12.85;43.73
54465;BME280;40374;49.480;20.016;2023-04-27T13:38:15;95123.91;;;12.97;45.36
54465;BME280;40374;49.480;20.016;2023-04-27T13:40:42;95130.13;;;12.97;45.37
54465;BME280;40374;49.480;20.016;2023-04-27T13:43:09;95126.47;;;12.88;45.05
54465;BME280;40374;49.480;20.016;2023-04-27T13:45:37;95128.00;;;12.94;46.50
54465;BME280;40374;49.480;20.016;2023-04-27T13:48:05;95125.31;;;12.94;46.77
54465;BME280;40374;49.480;20.016;2023-04-27T13:50:33;95126.91;;;12.95;46.16
54465;BME280;40374;49.480;20.016;2023-04-27T13:53:01;95135.81;;;12.77;42.49
54465;BME280;40374;49.480;20.016;2023-04-27T13:55:29;95139.16;;;12.15;43.95
54465;BME280;40374;49.480;20.016;2023-04-27T13:57:56;95134.81;;;11.90;45.71
54465;BME280;40374;49.480;20.016;2023-04-27T14:00:24;95140.69;;;11.63;46.37
54465;BME280;40374;49.480;20.016;2023-04-27T14:02:52;95137.13;;;11.33;47.59
54465;BME280;40374;49.480;20.016;2023-04-27T14:05:20;95135.91;;;11.15;48.11
54465;BME280;40374;49.480;20.016;2023-04-27T14:07:47;95137.09;;;10.99;47.67
54465;BME280;40374;49.480;20.016;2023-04-27T14:10:15;95130.97;;;10.88;46.70
54465;BME280;40374;49.480;20.016;2023-04-27T14:12:43;95136.03;;;10.95;48.00
54465;BME280;40374;49.480;20.016;2023-04-27T14:15:14;95135.72;;;11.02;48.36
54465;BME280;40374;49.480;20.016;2023-04-27T14:17:42;95136.22;;;11.09;48.66
54465;BME280;40374;49.480;20.016;2023-04-27T14:20:09;95130.31;;;11.07;48.32
54465;BME280;40374;49.480;20.016;2023-04-27T14:22:37;95127.59;;;11.12;48.36
54465;BME280;40374;49.480;20.016;2023-04-27T14:25:07;95137.31;;;11.08;48.05
54465;BME280;40374;49.480;20.016;2023-04-27T14:27:35;95139.72;;;11.04;48.34
54465;BME280;40374;49.480;20.016;2023-04-27T14:30:03;95142.66;;;11.13;47.88
54465;BME280;40374;49.480;20.016;2023-04-27T14:32:31;95129.22;;;11.08;48.62
54465;BME280;40374;49.480;20.016;2023-04-27T14:34:59;95145.38;;;11.08;48.89
54465;BME280;40374;49.480;20.016;2023-04-27T14:37:26;95147.69;;;11.30;48.99
54465;BME280;40374;49.480;20.016;2023-04-27T14:39:55;95145.72;;;11.41;47.51
54465;BME280;40374;49.480;20.016;2023-04-27T14:42:23;95150.84;;;10.92;45.30
54465;BME280;40374;49.480;20.016;2023-04-27T14:44:51;95148.25;;;10.72;48.06
54465;BME280;40374;49.480;20.016;2023-04-27T14:47:21;95148.91;;;10.28;46.84
54465;BME280;40374;49.480;20.016;2023-04-27T14:49:49;95157.28;;;10.11;49.35
54465;BME280;40374;49.480;20.016;2023-04-27T14:52:17;95161.56;;;10.12;49.69
54465;BME280;40374;49.480;20.016;2023-04-27T14:54:44;95154.09;;;9.78;47.46
54465;BME280;40374;49.480;20.016;2023-04-27T14:57:12;95156.25;;;9.61;50.67
54465;BME280;40374;49.480;20.016;2023-04-27T14:59:42;95160.25;;;9.63;51.29
54465;BME280;40374;49.480;20.016;2023-04-27T15:02:10;95166.72;;;9.57;51.49
54465;BME280;40374;49.480;20.016;2023-04-27T15:04:38;95164.03;;;9.52;51.47
54465;BME280;40374;49.480;20.016;2023-04-27T15:07:06;95172.59;;;9.49;52.38
54465;BME280;40374;49.480;20.016;2023-04-27T15:09:33;95173.69;;;9.48;52.75
54465;BME280;40374;49.480;20.016;2023-04-27T15:12:01;95171.28;;;9.51;52.55
54465;BME280;40374;49.480;20.016;2023-04-27T15:14:31;95181.22;;;9.56;53.51
54465;BME280;40374;49.480;20.016;2023-04-27T15:16:59;95154.34;;;9.51;52.88
54465;BME280;40374;49.480;20.016;2023-04-27T15:19:26;95175.59;;;9.63;51.73
54465;BME280;40374;49.480;20.016;2023-04-27T15:21:54;95179.06;;;9.63;53.56
54465;BME280;40374;49.480;20.016;2023-04-27T15:24:21;95170.22;;;9.63;53.28
54465;BME280;40374;49.480;20.016;2023-04-27T15:26:49;95178.00;;;9.64;52.31
54465;BME280;40374;49.480;20.016;2023-04-27T15:29:20;95179.63;;;9.60;52.95
54465;BME280;40374;49.480;20.016;2023-04-27T15:31:48;95180.16;;;9.62;53.79
54465;BME280;40374;49.480;20.016;2023-04-27T15:34:16;95178.28;;;9.58;54.29
54465;BME280;40374;49.480;20.016;2023-04-27T15:36:43;95168.03;;;9.44;54.19
54465;BME280;40374;49.480;20.016;2023-04-27T15:39:11;95178.50;;;9.41;53.63
54465;BME280;40374;49.480;20.016;2023-04-27T15:41:38;95181.75;;;9.32;53.19
54465;BME280;40374;49.480;20.016;2023-04-27T15:44:07;95186.25;;;9.11;51.25
54465;BME280;40374;49.480;20.016;2023-04-27T15:46:34;95189.38;;;8.88;53.09
54465;BME280;40374;49.480;20.016;2023-04-27T15:49:02;95194.41;;;8.69;54.23
54465;BME280;40374;49.480;20.016;2023-04-27T15:51:30;95191.41;;;8.55;53.65
54465;BME280;40374;49.480;20.016;2023-04-27T15:53:59;95190.56;;;8.44;53.44
54465;BME280;40374;49.480;20.016;2023-04-27T15:56:26;95188.78;;;8.23;52.67
54465;BME280;40374;49.480;20.016;2023-04-27T15:58:57;95193.09;;;8.24;54.36
54465;BME280;40374;49.480;20.016;2023-04-27T16:01:24;95192.22;;;8.13;54.98
54465;BME280;40374;49.480;20.016;2023-04-27T16:03:52;95187.28;;;7.95;55.24
54465;BME280;40374;49.480;20.016;2023-04-27T16:06:20;95182.78;;;8.00;55.44
54465;BME280;40374;49.480;20.016;2023-04-27T16:08:47;95194.84;;;8.03;55.21
54465;BME280;40374;49.480;20.016;2023-04-27T16:11:15;95195.88;;;8.02;55.91
54465;BME280;40374;49.480;20.016;2023-04-27T16:13:43;95196.13;;;7.95;56.38
54465;BME280;40374;49.480;20.016;2023-04-27T16:16:10;95199.88;;;7.94;57.96
54465;BME280;40374;49.480;20.016;2023-04-27T16:18:41;95196.63;;;7.92;59.89
54465;BME280;40374;49.480;20.016;2023-04-27T16:21:08;95199.25;;;7.87;61.34
54465;BME280;40374;49.480;20.016;2023-04-27T16:23:36;95204.59;;;7.82;62.06
54465;BME280;40374;49.480;20.016;2023-04-27T16:26:03;95204.28;;;7.78;60.38
54465;BME280;40374;49.480;20.016;2023-04-27T16:28:31;95214.13;;;7.72;60.40
54465;BME280;40374;49.480;20.016;2023-04-27T16:30:59;95210.13;;;7.70;60.81
54465;BME280;40374;49.480;20.016;2023-04-27T16:33:26;95203.56;;;7.56;60.54
54465;BME280;40374;49.480;20.016;2023-04-27T16:35:53;95187.13;;;7.42;61.28
54465;BME280;40374;49.480;20.016;2023-04-27T16:38:23;95203.22;;;7.47;61.25